Search for airport 
image banner adimage banner adimage banner ad
image banner ad

KDUJ - Dubois Rgnl

Located in Dubois, United States

ICAO - DUJ, IATA - DUJ

Data provided by Airmate  

General information

Coordinates: N41°10'42" W78°53'55"
Elevation is 1817 feet MSL.
Magnetic variation is -10° East
View others Airports in Pennsylvania

Operational data

Special qualification required
Current time UTC:
Current local time:
Weather
METAR: KDUJ 091153Z AUTO 00000KT 7SM OVC100 03/01 A3005 RMK AO2 SLP185 70001 I6000 T00280011 10028 20000 58003
TAF: KDUJ 091120Z 0912/1012 14003KT P6SM VCSH BKN080 FM091500 14007KT 5SM -RA BR OVC010 FM091700 08010KT 3SM RA BR OVC005 FM100000 02008KT 4SM -RA BR OVC005 FM100500 36004KT P6SM BKN006 FM101000 29005KT P6SM BKN010
View NOTAMs / SUP AIP / TFR affecting this airport [VIEW]
Communications frequencies: [VIEW]

Runways:

RWY identifierQFULength (ft)Width (ft)SurfaceLDA (ft)
0762°5503100ASPH5503
25242°5503100ASPH5503

Airport contact information

Address: Dubois United States

Satellite view of KDUJ